createdAt,value
2018-04-26T00:00:29.061Z,78.82
2018-04-26T00:03:34.297Z,78.61
2018-04-26T00:06:40.450Z,78.74
2018-04-26T00:09:45.637Z,78.52
2018-04-26T00:12:50.667Z,78.51
2018-04-26T00:15:55.865Z,78.24
2018-04-26T00:19:01.499Z,78.31
2018-04-26T00:22:07.658Z,78.16
2018-04-26T00:25:13.725Z,78.21
2018-04-26T00:28:19.881Z,78.06
2018-04-26T00:31:25.889Z,78.34
2018-04-26T00:34:31.090Z,78.16
2018-04-26T00:37:36.298Z,78.08
2018-04-26T00:40:42.466Z,78.23
2018-04-26T00:43:47.678Z,78.22
2018-04-26T00:46:52.893Z,78.20
2018-04-26T00:49:58.603Z,78.06
2018-04-26T00:53:04.729Z,78.08
2018-04-26T00:56:10.621Z,78.14
2018-04-26T00:59:16.542Z,78.36
2018-04-26T01:02:21.428Z,78.43
2018-04-26T01:05:27.515Z,78.44
2018-04-26T01:08:33.164Z,78.34
2018-04-26T01:11:38.352Z,78.60
2018-04-26T01:14:43.573Z,78.41
2018-04-26T01:17:48.769Z,78.37
2018-04-26T01:20:53.982Z,78.40
2018-04-26T01:23:59.405Z,78.31
2018-04-26T01:27:04.039Z,78.32
2018-04-26T01:30:09.968Z,78.28
2018-04-26T01:33:15.778Z,78.46
2018-04-26T01:36:33.006Z,78.57
2018-04-26T01:39:38.593Z,78.52
2018-04-26T01:42:44.709Z,78.85
2018-04-26T01:45:50.337Z,79.04
2018-04-26T01:48:56.061Z,79.24
2018-04-26T01:52:01.905Z,79.14
2018-04-26T01:55:07.561Z,79.36
2018-04-26T01:58:19.345Z,79.50
2018-04-26T02:01:24.817Z,79.69
2018-04-26T02:04:30.101Z,79.46
2018-04-26T02:07:35.393Z,79.84
2018-04-26T02:10:40.682Z,79.75
2018-04-26T02:13:45.943Z,79.78
2018-04-26T02:16:51.226Z,79.69
2018-04-26T02:19:57.161Z,79.83
2018-04-26T02:23:02.198Z,79.83
2018-04-26T02:26:07.499Z,79.66
2018-04-26T02:29:13.194Z,79.63
2018-04-26T02:32:19.378Z,79.56
2018-04-26T02:35:24.648Z,79.41
2018-04-26T02:38:30.958Z,79.41
2018-04-26T02:41:36.741Z,79.20
2018-04-26T02:44:42.818Z,79.07
2018-04-26T02:47:49.014Z,79.09
2018-04-26T02:50:54.317Z,79.19
2018-04-26T02:54:00.030Z,79.01
2018-04-26T02:57:06.221Z,79.10
2018-04-26T03:00:11.531Z,79.05
2018-04-26T03:03:16.800Z,79.22
2018-04-26T03:06:22.823Z,79.09
2018-04-26T03:09:28.905Z,79.12
2018-04-26T03:12:35.122Z,79.26
2018-04-26T03:15:41.297Z,79.18
2018-04-26T03:18:47.115Z,79.31
2018-04-26T03:21:52.383Z,79.43
2018-04-26T03:24:57.645Z,79.48
2018-04-26T03:28:03.598Z,79.45
2018-04-26T03:31:08.943Z,79.57
2018-04-26T03:34:13.899Z,79.46
2018-04-26T03:37:21.075Z,79.56
2018-04-26T03:40:26.126Z,79.62
2018-04-26T03:43:31.950Z,79.57
2018-04-26T03:46:36.935Z,79.55
2018-04-26T03:49:42.221Z,79.63
2018-04-26T03:52:47.256Z,79.65
2018-04-26T03:55:52.254Z,79.67
2018-04-26T03:58:57.548Z,79.37
2018-04-26T04:02:13.350Z,79.16
2018-04-26T04:05:31.314Z,79.45
2018-04-26T04:08:37.490Z,79.32
2018-04-26T04:11:42.775Z,79.33
2018-04-26T04:14:48.027Z,79.34
2018-04-26T04:17:54.201Z,79.27
2018-04-26T04:20:59.505Z,79.18
2018-04-26T04:24:04.775Z,79.28
2018-04-26T04:27:09.817Z,79.32
2018-04-26T04:30:16.737Z,79.33
2018-04-26T04:33:22.924Z,79.47
2018-04-26T04:36:29.009Z,79.55
2018-04-26T04:39:34.958Z,79.50
2018-04-26T04:42:40.977Z,79.83
2018-04-26T04:45:47.136Z,79.84
2018-04-26T04:48:53.221Z,80.06
2018-04-26T04:51:58.723Z,80.27
2018-04-26T04:55:04.314Z,80.40
2018-04-26T04:58:11.494Z,80.24
2018-04-26T05:01:16.997Z,80.28
2018-04-26T05:04:23.175Z,80.07
2018-04-26T05:07:29.417Z,80.09
2018-04-26T05:10:34.689Z,80.17
2018-04-26T05:13:39.962Z,80.14
2018-04-26T05:16:45.214Z,80.13
2018-04-26T05:19:50.564Z,80.07
2018-04-26T05:22:56.922Z,80.18
2018-04-26T05:26:02.789Z,80.63
2018-04-26T05:29:08.097Z,80.40
2018-04-26T05:32:13.373Z,80.29
2018-04-26T05:35:18.682Z,80.18
2018-04-26T05:38:24.877Z,80.24
2018-04-26T05:41:30.149Z,80.18
2018-04-26T05:44:35.182Z,80.29
2018-04-26T05:47:40.831Z,80.14
2018-04-26T05:50:46.666Z,80.67
2018-04-26T05:53:51.927Z,80.43
2018-04-26T05:56:57.200Z,80.45
2018-04-26T06:00:02.453Z,80.81
2018-04-26T06:03:08.541Z,80.26
2018-04-26T06:06:14.714Z,80.88
2018-04-26T06:09:20.835Z,80.61
2018-04-26T06:12:26.930Z,80.70
2018-04-26T06:15:32.898Z,80.74
2018-04-26T06:18:39.072Z,80.79
2018-04-26T06:21:45.073Z,80.95
2018-04-26T06:24:51.254Z,81.08
2018-04-26T06:27:57.386Z,81.14
2018-04-26T06:31:03.649Z,81.24
2018-04-26T06:34:09.906Z,81.34
2018-04-26T06:37:16.065Z,81.76
2018-04-26T06:40:21.327Z,81.93
2018-04-26T06:43:26.596Z,82.00
2018-04-26T06:46:32.768Z,81.69
2018-04-26T06:49:38.040Z,81.99
2018-04-26T06:52:44.225Z,82.15
2018-04-26T06:55:50.421Z,82.30
2018-04-26T06:58:55.714Z,81.99
2018-04-26T07:02:01.931Z,82.07
2018-04-26T07:05:07.198Z,82.42
2018-04-26T07:08:12.471Z,82.44
2018-04-26T07:11:18.654Z,82.27
2018-04-26T07:14:24.740Z,82.57
2018-04-26T07:17:30.841Z,82.52
2018-04-26T07:20:36.584Z,82.66
2018-04-26T07:23:42.809Z,82.74
2018-04-26T07:26:47.813Z,83.19
2018-04-26T07:29:53.619Z,82.70
2018-04-26T07:32:59.804Z,82.83
2018-04-26T07:36:05.697Z,82.80
2018-04-26T07:39:12.732Z,82.73
2018-04-26T07:42:18.483Z,82.58
2018-04-26T07:45:24.750Z,82.64
2018-04-26T07:48:30.965Z,82.47
2018-04-26T07:51:37.167Z,82.39
2018-04-26T07:54:43.437Z,83.01
2018-04-26T07:57:50.256Z,82.57
2018-04-26T08:00:55.530Z,82.56
2018-04-26T08:04:01.326Z,82.17
2018-04-26T08:07:07.412Z,82.38
2018-04-26T08:10:13.603Z,82.63
2018-04-26T08:13:19.757Z,82.27
2018-04-26T08:16:25.863Z,82.18
2018-04-26T08:19:32.112Z,82.45
2018-04-26T08:22:37.943Z,82.18
2018-04-26T08:25:43.218Z,82.20
2018-04-26T08:28:49.658Z,82.28
2018-04-26T08:31:55.786Z,82.43
2018-04-26T08:35:01.945Z,82.51
2018-04-26T08:38:07.818Z,82.39
2018-04-26T08:41:13.079Z,82.57
2018-04-26T08:44:19.273Z,82.18
2018-04-26T08:47:25.354Z,82.49
2018-04-26T08:50:31.166Z,82.53
2018-04-26T08:53:36.434Z,82.71
2018-04-26T08:56:42.249Z,82.33
2018-04-26T08:59:48.299Z,82.11
2018-04-26T09:02:54.214Z,82.21
2018-04-26T09:05:59.518Z,82.09
2018-04-26T09:09:04.226Z,80.94
2018-04-26T09:12:10.019Z,80.74
2018-04-26T09:15:16.097Z,80.89
2018-04-26T09:18:22.251Z,80.90
2018-04-26T09:21:27.515Z,81.38
2018-04-26T09:24:33.534Z,81.08
2018-04-26T09:27:39.529Z,81.60
2018-04-26T09:30:45.560Z,81.85
2018-04-26T09:33:51.542Z,81.97
2018-04-26T09:36:56.897Z,81.96
2018-04-26T09:40:02.897Z,82.56
2018-04-26T09:43:09.105Z,82.92
2018-04-26T09:46:13.775Z,83.28
2018-04-26T09:49:20.001Z,83.69
2018-04-26T09:52:26.194Z,83.65
2018-04-26T09:55:32.409Z,83.67
2018-04-26T09:58:37.728Z,83.48
2018-04-26T10:01:43.233Z,83.55
2018-04-26T10:04:55.150Z,83.51
2018-04-26T10:08:01.162Z,83.18
2018-04-26T10:11:06.829Z,83.10
2018-04-26T10:14:12.774Z,83.04
2018-04-26T10:17:18.033Z,82.74
2018-04-26T10:20:24.221Z,82.69
2018-04-26T10:23:29.486Z,82.23
2018-04-26T10:26:35.326Z,82.62
2018-04-26T10:29:41.365Z,82.21
2018-04-26T10:32:47.502Z,82.36
2018-04-26T10:35:53.697Z,82.73
2018-04-26T10:38:59.677Z,82.72
2018-04-26T10:42:05.890Z,82.80
2018-04-26T10:45:11.957Z,82.98
2018-04-26T10:48:18.057Z,83.58
2018-04-26T10:51:24.151Z,83.89
2018-04-26T10:54:30.276Z,83.96
2018-04-26T10:57:35.917Z,84.13
2018-04-26T11:00:41.197Z,84.38
2018-04-26T11:03:47.448Z,85.08
2018-04-26T11:06:53.442Z,84.94
2018-04-26T11:09:59.654Z,85.53
2018-04-26T11:13:04.933Z,85.34
2018-04-26T11:16:10.201Z,85.00
2018-04-26T11:19:16.382Z,85.20
2018-04-26T11:22:22.486Z,85.02
2018-04-26T11:25:28.600Z,84.69
2018-04-26T11:28:34.789Z,83.90
2018-04-26T11:31:40.054Z,83.80
2018-04-26T11:34:46.255Z,83.82
2018-04-26T11:37:51.518Z,83.75
2018-04-26T11:40:56.833Z,83.63
2018-04-26T11:44:03.001Z,83.95
2018-04-26T11:47:09.296Z,83.73
2018-04-26T11:50:15.088Z,83.58
2018-04-26T11:53:21.310Z,84.14
2018-04-26T11:56:27.132Z,84.76
2018-04-26T11:59:33.477Z,84.51
2018-04-26T12:02:39.460Z,84.53
2018-04-26T12:05:45.385Z,85.41
2018-04-26T12:08:51.466Z,85.73
2018-04-26T12:11:57.471Z,85.77
2018-04-26T12:15:02.783Z,85.01
2018-04-26T12:18:08.861Z,85.23
2018-04-26T12:21:15.081Z,85.19
2018-04-26T12:24:21.179Z,85.52
2018-04-26T12:27:27.114Z,85.80
2018-04-26T12:30:33.309Z,85.41
2018-04-26T12:33:39.211Z,85.92
2018-04-26T12:36:45.119Z,85.58
2018-04-26T12:39:51.210Z,85.12
2018-04-26T12:42:57.400Z,85.21
2018-04-26T12:46:02.660Z,85.61
2018-04-26T12:49:08.925Z,85.12
2018-04-26T12:52:14.406Z,85.30
2018-04-26T12:55:20.615Z,85.14
2018-04-26T12:58:26.711Z,84.59
2018-04-26T13:01:32.582Z,84.48
2018-04-26T13:04:38.579Z,84.43
2018-04-26T13:07:44.615Z,84.50
2018-04-26T13:10:50.810Z,84.53
2018-04-26T13:13:56.819Z,84.80
2018-04-26T13:17:03.034Z,84.37
2018-04-26T13:20:08.945Z,83.84
2018-04-26T13:23:15.145Z,83.88
2018-04-26T13:26:21.409Z,83.55
2018-04-26T13:29:27.447Z,83.26
2018-04-26T13:32:33.552Z,83.39
2018-04-26T13:35:39.762Z,83.14
2018-04-26T13:38:45.989Z,82.64
2018-04-26T13:41:51.265Z,82.83
2018-04-26T13:44:56.689Z,83.08
2018-04-26T13:48:03.056Z,83.05
2018-04-26T13:51:08.094Z,82.86
2018-04-26T13:54:13.398Z,82.72
2018-04-26T13:57:18.687Z,82.66
2018-04-26T14:00:23.962Z,82.53
2018-04-26T14:03:30.198Z,82.32
2018-04-26T14:06:36.281Z,81.94
2018-04-26T14:09:42.280Z,82.36
2018-04-26T14:12:48.017Z,82.89
2018-04-26T14:15:53.326Z,82.75
2018-04-26T14:18:59.380Z,83.17
2018-04-26T14:22:05.589Z,83.37
2018-04-26T14:25:11.842Z,83.53
2018-04-26T14:28:17.922Z,84.00
2018-04-26T14:31:23.813Z,84.31
2018-04-26T14:34:30.061Z,84.23
2018-04-26T14:37:35.413Z,84.51
2018-04-26T14:40:40.827Z,84.32
2018-04-26T14:43:47.008Z,84.69
2018-04-26T14:46:53.188Z,84.99
2018-04-26T14:49:59.309Z,84.71
2018-04-26T14:53:05.515Z,84.64
2018-04-26T14:56:11.424Z,85.08
2018-04-26T14:59:18.071Z,84.48
2018-04-26T15:02:23.341Z,84.49
2018-04-26T15:05:30.521Z,84.37
2018-04-26T15:08:36.065Z,84.31
2018-04-26T15:11:41.358Z,84.30
2018-04-26T15:14:46.645Z,83.98
2018-04-26T15:17:51.912Z,83.71
2018-04-26T15:20:57.321Z,83.64
2018-04-26T15:24:02.583Z,83.53
2018-04-26T15:27:08.770Z,83.66
2018-04-26T15:30:14.870Z,83.51
2018-04-26T15:33:21.053Z,83.49
2018-04-26T15:36:27.315Z,83.65
2018-04-26T15:39:33.339Z,83.51
2018-04-26T15:42:39.429Z,83.76
2018-04-26T15:45:45.530Z,83.43
2018-04-26T15:48:51.539Z,83.32
2018-04-26T15:51:57.633Z,83.55
2018-04-26T15:59:03.235Z,83.26
2018-04-26T16:02:25.551Z,82.99
2018-04-26T16:05:41.509Z,82.96
2018-04-26T16:08:57.497Z,82.87
2018-04-26T16:16:03.618Z,82.91
2018-04-26T16:19:27.877Z,82.90
2018-04-26T16:26:34.481Z,82.03
2018-04-26T16:29:50.486Z,81.97
2018-04-26T16:36:51.431Z,82.29
2018-04-26T16:39:56.330Z,82.21
2018-04-26T16:43:01.337Z,82.19
2018-04-26T16:46:06.814Z,82.34
2018-04-26T16:49:12.116Z,82.12
2018-04-26T16:52:18.498Z,82.11
2018-04-26T16:55:24.398Z,82.01
2018-04-26T16:58:29.674Z,82.29
2018-04-26T17:01:34.945Z,82.59
2018-04-26T17:04:40.346Z,82.17
2018-04-26T17:07:46.636Z,82.09
2018-04-26T17:10:52.612Z,82.34
2018-04-26T17:13:58.650Z,82.47
2018-04-26T17:17:04.648Z,82.41
2018-04-26T17:20:10.843Z,82.33
2018-04-26T17:23:16.948Z,82.44
2018-04-26T17:26:22.213Z,82.61
2018-04-26T17:29:28.010Z,82.04
2018-04-26T17:32:33.310Z,82.07
2018-04-26T17:35:39.517Z,82.16
2018-04-26T17:38:44.853Z,81.99
2018-04-26T17:41:50.182Z,81.69
2018-04-26T17:44:56.369Z,81.95
2018-04-26T17:48:02.607Z,81.93
2018-04-26T17:51:08.090Z,82.09
2018-04-26T17:54:13.421Z,82.02
2018-04-26T17:57:18.724Z,81.93
2018-04-26T18:00:24.802Z,81.93
2018-04-26T18:03:31.115Z,81.74
2018-04-26T18:06:37.059Z,81.39
2018-04-26T18:09:42.342Z,81.66
2018-04-26T18:12:48.455Z,81.41
2018-04-26T18:15:54.398Z,81.36
2018-04-26T18:19:00.330Z,81.08
2018-04-26T18:22:06.400Z,81.12
2018-04-26T18:25:12.591Z,80.84
2018-04-26T18:28:18.063Z,81.06
2018-04-26T18:31:23.972Z,81.11
2018-04-26T18:34:30.458Z,80.73
2018-04-26T18:37:35.775Z,80.67
2018-04-26T18:40:41.030Z,80.94
2018-04-26T18:43:47.233Z,80.12
2018-04-26T18:46:53.324Z,80.09
2018-04-26T18:49:59.234Z,80.23
2018-04-26T18:53:05.337Z,80.21
2018-04-26T18:56:11.383Z,80.00
2018-04-26T18:59:18.183Z,80.07
2018-04-26T19:02:24.257Z,79.89
2018-04-26T19:05:30.133Z,79.70
2018-04-26T19:08:36.019Z,79.91
2018-04-26T19:11:42.027Z,80.09
2018-04-26T19:14:49.187Z,80.24
2018-04-26T19:17:54.430Z,80.11
2018-04-26T19:21:01.009Z,80.05
2018-04-26T19:24:06.815Z,79.87
2018-04-26T19:27:13.071Z,79.92
2018-04-26T19:30:19.082Z,79.90
2018-04-26T19:33:25.194Z,80.02
2018-04-26T19:36:31.125Z,79.92
2018-04-26T19:39:37.022Z,80.17
2018-04-26T19:42:42.928Z,80.24
2018-04-26T19:45:49.667Z,80.07
2018-04-26T19:48:54.649Z,80.09
2018-04-26T19:52:00.846Z,80.56
2018-04-26T19:55:06.952Z,80.24
2018-04-26T19:58:12.917Z,80.84
2018-04-26T20:01:19.798Z,80.75
2018-04-26T20:04:26.112Z,80.73
2018-04-26T20:07:31.393Z,80.80
2018-04-26T20:10:37.797Z,80.70
2018-04-26T20:13:43.830Z,81.07
2018-04-26T20:16:49.899Z,80.96
2018-04-26T20:19:56.053Z,80.90
2018-04-26T20:23:01.771Z,80.76
2018-04-26T20:26:07.858Z,80.75
2018-04-26T20:29:14.125Z,80.60
2018-04-26T20:32:20.098Z,80.55
2018-04-26T20:35:25.373Z,80.54
2018-04-26T20:38:30.634Z,80.46
2018-04-26T20:41:47.732Z,80.64
2018-04-26T20:44:53.970Z,80.54
2018-04-26T20:47:59.279Z,80.86
2018-04-26T20:51:05.258Z,80.73
2018-04-26T20:54:10.777Z,80.57
2018-04-26T20:57:16.056Z,80.88
2018-04-26T21:00:22.813Z,80.78
2018-04-26T21:03:28.955Z,80.92
2018-04-26T21:06:35.194Z,80.86
2018-04-26T21:09:42.416Z,80.89
2018-04-26T21:12:48.219Z,80.91
2018-04-26T21:15:54.326Z,80.97
2018-04-26T21:18:59.616Z,81.04
2018-04-26T21:22:05.534Z,80.97
2018-04-26T21:25:11.663Z,81.16
2018-04-26T21:28:17.697Z,81.12
2018-04-26T21:31:23.709Z,81.27
2018-04-26T21:34:29.818Z,81.21
2018-04-26T21:37:35.633Z,81.08
2018-04-26T21:40:41.777Z,81.25
2018-04-26T21:43:48.029Z,81.31
2018-04-26T21:46:54.041Z,81.35
2018-04-26T21:50:05.362Z,81.35
2018-04-26T21:53:15.898Z,81.34
2018-04-26T21:56:26.922Z,81.77
2018-04-26T21:59:38.151Z,81.37
2018-04-26T22:02:42.646Z,81.43
2018-04-26T22:05:48.654Z,81.34
2018-04-26T22:08:54.665Z,81.43
2018-04-26T22:12:00.754Z,81.61
2018-04-26T22:15:06.669Z,81.61
2018-04-26T22:18:11.955Z,81.75
2018-04-26T22:21:18.170Z,81.79
2018-04-26T22:24:24.175Z,81.87
2018-04-26T22:27:30.079Z,81.87
2018-04-26T22:30:35.991Z,81.84
2018-04-26T22:33:42.925Z,82.02
2018-04-26T22:36:48.707Z,81.93
2018-04-26T22:39:54.623Z,81.59
2018-04-26T22:43:00.614Z,81.59
2018-04-26T22:46:06.638Z,81.71
2018-04-26T22:49:12.756Z,81.61
2018-04-26T22:52:18.036Z,81.51
2018-04-26T22:55:23.333Z,81.42
2018-04-26T22:58:28.640Z,81.35
2018-04-26T23:01:33.923Z,81.45
2018-04-26T23:04:39.222Z,81.32
2018-04-26T23:07:44.526Z,81.21
2018-04-26T23:10:49.850Z,81.59
2018-04-26T23:13:55.143Z,81.62
2018-04-26T23:17:01.258Z,81.85
2018-04-26T23:20:07.279Z,81.77
2018-04-26T23:23:13.395Z,81.99
2018-04-26T23:26:19.342Z,82.13
2018-04-26T23:29:26.434Z,81.94
2018-04-26T23:32:32.235Z,81.81
2018-04-26T23:35:38.242Z,81.96
2018-04-26T23:38:44.294Z,82.07
2018-04-26T23:41:50.266Z,81.81
2018-04-26T23:44:55.270Z,82.01
2018-04-26T23:48:00.549Z,82.28
2018-04-26T23:51:06.754Z,82.03
2018-04-26T23:54:12.043Z,82.20
2018-04-26T23:57:17.331Z,82.36
